LFPN 180530Z AUTO 23007KT 9999 FEW009 OVC024 16/14 Q1022 TEMPO BKN010

ElémentsDécodage
LFPN Station météo située sur l'aérodrome de TOUSSUS-LE-NOBLE
180530Z émis le 18 du mois à 05h30 UTC
AUTO Bulletin édité par un automate
23007KT vent du 230°, 07 noeuds
9999 visibilité horizontale supérieure à 10 Km
FEW009 nuages rares (1/8 à 2/8) à 900 pieds
OVC024 couverture nuageuse totale (8/8) à 2400 pieds
16/14 température 16°C, point de rosée 14°C
 soit une humidité relative de 88%
Q1022 la pression au niveau de la mer (QNH) est de 1022 hPa
TEMPO fluctuation temporaire prévue
BKN010 nuages morcelés (5/8 à 7/8) à 1000 pieds